createdAt,value
2023-02-27T00:01:50.151Z,2.50
2023-02-27T00:04:17.041Z,2.60
2023-02-27T00:06:43.938Z,2.50
2023-02-27T00:09:10.785Z,2.50
2023-02-27T00:11:38.827Z,2.50
2023-02-27T00:14:05.733Z,2.50
2023-02-27T00:16:32.809Z,2.40
2023-02-27T00:19:01.731Z,2.40
2023-02-27T00:21:29.202Z,2.40
2023-02-27T00:23:56.138Z,2.40
2023-02-27T00:26:23.063Z,2.30
2023-02-27T00:28:50.040Z,2.40
2023-02-27T00:31:17.078Z,2.30
2023-02-27T00:33:44.022Z,2.40
2023-02-27T00:36:11.054Z,2.30
2023-02-27T00:38:37.929Z,2.30
2023-02-27T00:41:04.842Z,2.30
2023-02-27T00:43:31.770Z,2.30
2023-02-27T00:45:58.760Z,2.30
2023-02-27T00:48:25.724Z,2.30
2023-02-27T00:50:52.688Z,2.30
2023-02-27T00:53:19.823Z,2.30
2023-02-27T00:55:46.796Z,2.30
2023-02-27T00:58:13.656Z,2.30
2023-02-27T01:00:40.700Z,2.30
2023-02-27T01:03:07.822Z,2.20
2023-02-27T01:05:34.736Z,2.20
2023-02-27T01:08:01.670Z,2.20
2023-02-27T01:10:28.576Z,2.20
2023-02-27T01:12:55.463Z,2.20
2023-02-27T01:15:22.434Z,2.10
2023-02-27T01:17:49.706Z,2.10
2023-02-27T01:20:16.653Z,2.10
2023-02-27T01:22:43.582Z,2.10
2023-02-27T01:25:10.961Z,2.10
2023-02-27T01:27:37.882Z,2.00
2023-02-27T01:30:05.085Z,2.00
2023-02-27T01:32:31.993Z,2.00
2023-02-27T01:34:58.950Z,2.00
2023-02-27T01:37:25.862Z,1.90
2023-02-27T01:39:52.724Z,1.90
2023-02-27T01:42:28.990Z,1.90
2023-02-27T01:45:11.522Z,1.90
2023-02-27T01:47:44.583Z,1.90
2023-02-27T01:50:12.341Z,1.90
2023-02-27T01:52:40.592Z,1.90
2023-02-27T01:55:08.921Z,1.80
2023-02-27T01:57:36.222Z,1.80
2023-02-27T02:00:04.850Z,1.70
2023-02-27T02:02:37.660Z,1.70
2023-02-27T02:05:06.078Z,1.70
2023-02-27T02:07:34.080Z,1.70
2023-02-27T02:10:01.950Z,1.70
2023-02-27T02:12:30.568Z,1.70
2023-02-27T02:14:57.892Z,1.80
2023-02-27T02:17:40.481Z,1.80
2023-02-27T02:20:26.095Z,1.70
2023-02-27T02:23:04.968Z,1.70
2023-02-27T02:25:50.491Z,1.70
2023-02-27T02:28:20.189Z,1.70
2023-02-27T02:30:47.136Z,1.70
2023-02-27T02:33:32.220Z,1.60
2023-02-27T02:36:17.785Z,1.60
2023-02-27T02:39:11.026Z,1.60
2023-02-27T02:41:37.852Z,1.60
2023-02-27T02:44:13.579Z,1.50
2023-02-27T02:46:55.504Z,1.50
2023-02-27T02:49:31.730Z,1.50
2023-02-27T02:52:06.115Z,1.40
2023-02-27T02:54:45.748Z,1.50
2023-02-27T02:57:16.114Z,1.50
2023-02-27T02:59:52.785Z,1.40
2023-02-27T03:02:22.507Z,1.30
2023-02-27T03:04:56.166Z,1.30
2023-02-27T03:07:23.045Z,1.30
2023-02-27T03:10:13.464Z,1.30
2023-02-27T03:12:42.896Z,1.30
2023-02-27T03:15:17.868Z,1.30
2023-02-27T03:18:17.682Z,1.30
2023-02-27T03:20:48.065Z,1.30
2023-02-27T03:23:19.121Z,1.30
2023-02-27T03:25:46.516Z,1.20
2023-02-27T03:28:22.917Z,1.20
2023-02-27T03:30:56.519Z,1.10
2023-02-27T03:33:26.649Z,1.10
2023-02-27T03:35:58.026Z,1.10
2023-02-27T03:38:34.351Z,1.10
2023-02-27T03:41:04.166Z,1.10
2023-02-27T03:43:35.111Z,1.10
2023-02-27T03:46:09.659Z,1.00
2023-02-27T03:48:36.681Z,1.00
2023-02-27T03:51:03.894Z,1.00
2023-02-27T03:53:30.762Z,1.00
2023-02-27T03:55:58.422Z,1.00
2023-02-27T03:58:25.372Z,0.90
2023-02-27T04:00:52.249Z,0.90
2023-02-27T04:03:19.183Z,0.90
2023-02-27T04:05:46.412Z,0.90
2023-02-27T04:08:19.601Z,0.90
2023-02-27T04:10:46.447Z,0.90
2023-02-27T04:13:21.474Z,0.90
2023-02-27T04:16:06.603Z,1.00
2023-02-27T04:18:42.813Z,0.90
2023-02-27T04:21:22.950Z,0.90
2023-02-27T04:24:14.556Z,0.90
2023-02-27T04:26:44.214Z,0.90
2023-02-27T04:29:18.978Z,0.90
2023-02-27T04:31:49.954Z,0.80
2023-02-27T04:34:23.050Z,0.80
2023-02-27T04:37:01.746Z,0.90
2023-02-27T04:39:33.474Z,0.90
2023-02-27T04:42:02.567Z,0.90
2023-02-27T04:44:31.118Z,0.90
2023-02-27T04:46:58.909Z,0.90
2023-02-27T04:49:34.893Z,0.90
2023-02-27T04:52:01.797Z,0.80
2023-02-27T04:54:34.257Z,0.80
2023-02-27T04:57:03.759Z,0.80
2023-02-27T04:59:33.048Z,0.70
2023-02-27T05:02:02.213Z,0.70
2023-02-27T05:04:33.466Z,0.70
2023-02-27T05:07:01.354Z,0.60
2023-02-27T05:09:35.353Z,0.70
2023-02-27T05:12:05.914Z,0.60
2023-02-27T05:14:39.435Z,0.60
2023-02-27T05:17:09.116Z,0.60
2023-02-27T05:19:38.634Z,0.50
2023-02-27T05:22:08.250Z,0.60
2023-02-27T05:24:41.216Z,0.50
2023-02-27T05:27:17.867Z,0.50
2023-02-27T05:29:52.306Z,0.50
2023-02-27T05:32:22.800Z,0.50
2023-02-27T05:34:53.056Z,0.50
2023-02-27T05:37:31.355Z,0.50
2023-02-27T05:39:59.419Z,0.40
2023-02-27T05:42:32.411Z,0.40
2023-02-27T05:45:03.246Z,0.40
2023-02-27T05:47:31.629Z,0.40
2023-02-27T05:50:10.544Z,0.30
2023-02-27T05:52:38.475Z,0.30
2023-02-27T05:55:05.564Z,0.30
2023-02-27T05:57:38.645Z,0.30
2023-02-27T06:00:05.590Z,0.40
2023-02-27T06:02:32.627Z,0.30
2023-02-27T06:04:59.541Z,0.30
2023-02-27T06:07:28.678Z,0.30
2023-02-27T06:09:55.620Z,0.30
2023-02-27T06:12:22.782Z,0.20
2023-02-27T06:14:49.728Z,0.20
2023-02-27T06:17:16.661Z,0.20
2023-02-27T06:19:43.812Z,0.20
2023-02-27T06:22:11.297Z,0.20
2023-02-27T06:24:38.226Z,0.20
2023-02-27T06:27:05.372Z,0.20
2023-02-27T06:29:32.382Z,0.20
2023-02-27T06:31:59.679Z,0.20
2023-02-27T06:34:26.605Z,0.10
2023-02-27T06:36:53.676Z,0.10
2023-02-27T06:39:20.913Z,0.10
2023-02-27T06:41:48.038Z,0.20
2023-02-27T06:44:15.494Z,0.20
2023-02-27T06:46:42.473Z,0.20
2023-02-27T06:49:09.418Z,0.20
2023-02-27T06:51:36.321Z,0.20
2023-02-27T06:54:03.891Z,0.20
2023-02-27T06:56:30.828Z,0.20
2023-02-27T06:58:59.473Z,0.20
2023-02-27T07:01:30.693Z,0.30
2023-02-27T07:03:57.601Z,0.30
2023-02-27T07:07:32.033Z,0.30
2023-02-27T07:09:11.498Z,0.30
2023-02-27T07:11:41.574Z,0.40
2023-02-27T07:14:08.623Z,0.50
2023-02-27T07:16:35.577Z,0.50
2023-02-27T07:19:02.451Z,0.50
2023-02-27T07:21:29.351Z,0.60
2023-02-27T07:23:56.307Z,0.70
2023-02-27T07:26:23.894Z,0.70
2023-02-27T07:28:50.903Z,0.70
2023-02-27T07:31:18.104Z,0.70
2023-02-27T07:33:45.226Z,0.80
2023-02-27T07:36:12.255Z,0.80
2023-02-27T07:38:39.189Z,0.80
2023-02-27T07:41:06.145Z,0.90
2023-02-27T07:43:32.995Z,1.00
2023-02-27T07:45:59.916Z,1.00
2023-02-27T07:48:27.276Z,1.00
2023-02-27T07:50:54.218Z,1.10
2023-02-27T07:53:21.228Z,1.10
2023-02-27T07:55:48.341Z,1.20
2023-02-27T07:58:15.275Z,1.30
2023-02-27T08:00:42.648Z,1.40
2023-02-27T08:03:09.800Z,1.50
2023-02-27T08:05:36.852Z,1.60
2023-02-27T08:08:03.857Z,1.60
2023-02-27T08:10:34.829Z,1.70
2023-02-27T08:13:01.803Z,1.80
2023-02-27T08:15:28.988Z,1.80
2023-02-27T08:17:55.836Z,1.90
2023-02-27T08:20:22.811Z,2.10
2023-02-27T08:22:49.717Z,2.20
2023-02-27T08:25:16.857Z,2.30
2023-02-27T08:27:43.724Z,2.40
2023-02-27T08:30:11.366Z,2.50
2023-02-27T08:32:38.972Z,2.50
2023-02-27T08:35:06.514Z,2.70
2023-02-27T08:37:33.330Z,2.70
2023-02-27T08:40:00.298Z,2.70
2023-02-27T08:42:27.346Z,2.80
2023-02-27T08:44:56.758Z,2.90
2023-02-27T08:47:23.712Z,3.00
2023-02-27T08:49:50.594Z,3.00
2023-02-27T08:52:24.855Z,3.10
2023-02-27T08:54:51.977Z,3.20
2023-02-27T08:57:18.921Z,3.30
2023-02-27T08:59:45.799Z,3.30
2023-02-27T09:02:12.715Z,3.40
2023-02-27T09:04:45.120Z,3.40
2023-02-27T09:07:12.021Z,3.50
2023-02-27T09:09:38.993Z,3.60
2023-02-27T09:12:06.342Z,3.70
2023-02-27T09:14:33.254Z,3.80
2023-02-27T09:17:00.246Z,3.90
2023-02-27T09:19:27.223Z,4.00
2023-02-27T09:21:54.102Z,4.10
2023-02-27T09:24:21.125Z,4.20
2023-02-27T09:26:48.737Z,4.20
2023-02-27T09:29:15.883Z,4.30
2023-02-27T09:31:42.792Z,4.40
2023-02-27T09:34:09.651Z,4.50
2023-02-27T09:36:36.515Z,4.50
2023-02-27T09:39:03.660Z,4.60
2023-02-27T09:41:33.705Z,4.70
2023-02-27T09:44:01.827Z,4.70
2023-02-27T09:46:29.905Z,4.80
2023-02-27T09:49:00.255Z,4.90
2023-02-27T09:51:28.464Z,4.80
2023-02-27T09:53:57.057Z,4.80
2023-02-27T09:56:35.766Z,4.80
2023-02-27T09:59:05.903Z,4.90
2023-02-27T10:01:36.006Z,5.00
2023-02-27T10:04:11.968Z,5.00
2023-02-27T10:06:44.939Z,5.00
2023-02-27T10:09:22.743Z,5.00
2023-02-27T10:11:49.741Z,5.10
2023-02-27T10:14:26.312Z,5.10
2023-02-27T10:16:57.889Z,5.10
2023-02-27T10:19:27.468Z,5.30
2023-02-27T10:21:56.973Z,5.30
2023-02-27T10:24:29.698Z,5.30
2023-02-27T10:27:02.247Z,5.20
2023-02-27T10:29:29.546Z,5.10
2023-02-27T10:32:17.332Z,5.20
2023-02-27T10:34:45.904Z,5.30
2023-02-27T10:37:15.859Z,5.50
2023-02-27T10:39:51.926Z,5.40
2023-02-27T10:42:18.902Z,5.50
2023-02-27T10:44:46.405Z,5.60
2023-02-27T10:47:15.045Z,5.70
2023-02-27T10:49:43.148Z,5.80
2023-02-27T10:52:14.070Z,5.90
2023-02-27T10:54:41.538Z,5.90
2023-02-27T10:57:27.570Z,5.90
2023-02-27T11:00:09.904Z,5.90
2023-02-27T11:02:38.218Z,5.90
2023-02-27T11:05:06.626Z,5.90
2023-02-27T11:07:34.981Z,6.00
2023-02-27T11:10:06.644Z,6.10
2023-02-27T11:12:34.348Z,6.10
2023-02-27T11:15:22.215Z,6.20
2023-02-27T11:17:49.331Z,6.30
2023-02-27T11:20:28.315Z,6.40
2023-02-27T11:23:18.461Z,6.40
2023-02-27T11:25:45.837Z,6.50
2023-02-27T11:28:14.179Z,6.60
2023-02-27T11:30:42.966Z,6.70
2023-02-27T11:33:17.913Z,6.70
2023-02-27T11:35:50.282Z,6.70
2023-02-27T11:38:25.744Z,6.60
2023-02-27T11:40:52.659Z,6.70
2023-02-27T11:43:25.002Z,6.80
2023-02-27T11:46:16.654Z,6.90
2023-02-27T11:48:47.601Z,7.00
2023-02-27T11:51:17.758Z,7.00
2023-02-27T11:54:03.419Z,7.00
2023-02-27T11:56:34.134Z,7.10
2023-02-27T11:59:05.882Z,7.40
2023-02-27T12:01:39.385Z,7.50
2023-02-27T12:04:12.488Z,7.70
2023-02-27T12:06:46.466Z,7.80
2023-02-27T12:09:34.420Z,7.80
2023-02-27T12:12:03.020Z,7.80
2023-02-27T12:14:33.612Z,7.90
2023-02-27T12:17:10.534Z,8.10
2023-02-27T12:19:43.945Z,8.20
2023-02-27T12:22:13.768Z,8.30
2023-02-27T12:24:49.833Z,8.40
2023-02-27T12:27:20.666Z,8.40
2023-02-27T12:29:58.712Z,8.40
2023-02-27T12:32:34.580Z,8.50
2023-02-27T12:35:05.628Z,8.60
2023-02-27T12:37:35.461Z,8.70
2023-02-27T12:40:07.543Z,8.80
2023-02-27T12:42:43.494Z,9.10
2023-02-27T12:45:29.284Z,9.20
2023-02-27T12:48:02.434Z,9.20
2023-02-27T12:50:35.460Z,9.10
2023-02-27T12:53:05.225Z,9.00
2023-02-27T12:55:34.854Z,9.20
2023-02-27T12:58:07.199Z,9.20
2023-02-27T13:00:46.480Z,9.00
2023-02-27T13:03:19.202Z,8.70
2023-02-27T13:05:49.400Z,8.70
2023-02-27T13:08:19.698Z,8.50
2023-02-27T13:10:59.193Z,8.20
2023-02-27T13:13:37.445Z,8.10
2023-02-27T13:16:13.120Z,8.00
2023-02-27T13:19:00.329Z,7.80
2023-02-27T13:21:30.356Z,7.70
2023-02-27T13:23:58.684Z,7.60
2023-02-27T13:26:28.717Z,7.60
2023-02-27T13:28:56.344Z,7.50
2023-02-27T13:31:36.750Z,7.40
2023-02-27T13:34:22.648Z,7.40
2023-02-27T13:36:52.562Z,7.50
2023-02-27T13:39:39.268Z,7.60
2023-02-27T13:42:24.836Z,7.50
2023-02-27T13:44:54.503Z,7.50
2023-02-27T13:47:33.461Z,7.30
2023-02-27T13:50:01.855Z,7.20
2023-02-27T13:52:36.677Z,7.20
2023-02-27T13:55:12.303Z,7.20
2023-02-27T13:57:39.372Z,7.20
2023-02-27T14:00:09.402Z,7.20
2023-02-27T14:02:56.524Z,7.00
2023-02-27T14:05:36.204Z,7.00
2023-02-27T14:08:05.951Z,7.00
2023-02-27T14:10:33.405Z,7.10
2023-02-27T14:13:02.064Z,7.10
2023-02-27T14:15:32.168Z,7.10
2023-02-27T14:18:12.678Z,7.10
2023-02-27T14:20:42.869Z,7.20
2023-02-27T14:23:18.953Z,7.30
2023-02-27T14:26:02.360Z,7.30
2023-02-27T14:28:49.594Z,7.40
2023-02-27T14:31:31.251Z,7.40
2023-02-27T14:34:05.119Z,7.50
2023-02-27T14:36:33.432Z,7.60
2023-02-27T14:39:01.432Z,7.90
2023-02-27T14:41:34.595Z,8.10
2023-02-27T14:44:01.640Z,8.10
2023-02-27T14:46:31.432Z,8.10
2023-02-27T14:49:03.011Z,7.90
2023-02-27T14:51:34.270Z,7.60
2023-02-27T14:54:04.324Z,7.50
2023-02-27T14:56:31.759Z,7.50
2023-02-27T14:59:04.887Z,7.60
2023-02-27T15:01:35.537Z,7.80
2023-02-27T15:04:04.610Z,8.00
2023-02-27T15:06:36.715Z,8.10
2023-02-27T15:09:04.326Z,8.10
2023-02-27T15:11:31.382Z,8.10
2023-02-27T15:14:02.358Z,8.10
2023-02-27T15:16:31.976Z,8.00
2023-02-27T15:19:02.802Z,7.90
2023-02-27T15:21:31.278Z,7.80
2023-02-27T15:24:01.600Z,7.90
2023-02-27T15:26:33.256Z,7.80
2023-02-27T15:29:00.616Z,7.90
2023-02-27T15:31:30.380Z,7.70
2023-02-27T15:33:58.440Z,7.60
2023-02-27T15:36:30.487Z,7.70
2023-02-27T15:39:03.368Z,7.80
2023-02-27T15:41:30.487Z,7.70
2023-02-27T15:43:57.654Z,7.80
2023-02-27T15:46:24.694Z,7.80
2023-02-27T15:48:52.961Z,7.80
2023-02-27T15:51:19.823Z,7.70
2023-02-27T15:53:53.305Z,7.60
2023-02-27T15:56:24.384Z,7.50
2023-02-27T15:58:54.584Z,7.40
2023-02-27T16:01:22.595Z,7.40
2023-02-27T16:03:50.572Z,7.40
2023-02-27T16:06:19.557Z,7.40
2023-02-27T16:08:58.823Z,7.40
2023-02-27T16:11:27.501Z,7.30
2023-02-27T16:13:55.100Z,7.30
2023-02-27T16:16:24.826Z,7.30
2023-02-27T16:18:52.951Z,7.30
2023-02-27T16:21:20.793Z,7.30
2023-02-27T16:23:48.056Z,7.40
2023-02-27T16:26:23.743Z,7.40
2023-02-27T16:28:52.850Z,7.50
2023-02-27T16:31:25.416Z,7.40
2023-02-27T16:33:53.152Z,7.40
2023-02-27T16:36:22.077Z,7.50
2023-02-27T16:38:49.206Z,7.50
2023-02-27T16:41:17.096Z,7.50
2023-02-27T16:43:45.529Z,7.50
2023-02-27T16:46:20.335Z,7.60
2023-02-27T16:48:52.250Z,7.50
2023-02-27T16:51:20.322Z,7.40
2023-02-27T16:53:48.052Z,7.40
2023-02-27T16:56:15.822Z,7.30
2023-02-27T16:58:44.960Z,7.30
2023-02-27T17:01:14.044Z,7.30
2023-02-27T17:07:06.771Z,7.20
2023-02-27T17:09:35.401Z,7.10
2023-02-27T17:12:02.310Z,7.00
2023-02-27T17:14:29.383Z,6.90
2023-02-27T17:16:56.443Z,6.90
2023-02-27T17:19:24.106Z,6.90
2023-02-27T17:21:52.058Z,6.90
2023-02-27T17:24:19.160Z,6.80
2023-02-27T17:26:46.097Z,6.70
2023-02-27T17:29:15.240Z,6.60
2023-02-27T17:31:42.571Z,6.50
2023-02-27T17:34:09.574Z,6.50
2023-02-27T17:36:37.014Z,6.30
2023-02-27T17:39:04.560Z,6.30
2023-02-27T17:41:31.824Z,6.20
2023-02-27T17:43:59.352Z,6.20
2023-02-27T17:46:27.474Z,6.10
2023-02-27T17:48:56.628Z,6.00
2023-02-27T17:51:23.534Z,6.00
2023-02-27T17:53:50.582Z,5.90
2023-02-27T17:56:18.419Z,5.90
2023-02-27T17:58:45.728Z,5.90
2023-02-27T18:01:14.981Z,5.80
2023-02-27T18:03:42.073Z,5.80
2023-02-27T18:06:09.021Z,5.80
2023-02-27T18:08:35.976Z,5.70
2023-02-27T18:11:04.242Z,5.60
2023-02-27T18:13:31.511Z,5.50
2023-02-27T18:15:58.890Z,5.50
2023-02-27T18:18:25.824Z,5.50
2023-02-27T18:21:10.049Z,5.40
2023-02-27T18:23:37.496Z,5.30
2023-02-27T18:26:04.743Z,5.30
2023-02-27T18:28:31.795Z,5.30
2023-02-27T18:30:59.405Z,5.20
2023-02-27T18:33:26.345Z,5.20
2023-02-27T18:35:53.275Z,5.10
2023-02-27T18:38:20.324Z,5.10
2023-02-27T18:40:47.232Z,5.10
2023-02-27T18:43:14.204Z,5.10
2023-02-27T18:45:41.313Z,5.10
2023-02-27T18:48:08.619Z,5.10
2023-02-27T18:50:35.616Z,5.00
2023-02-27T18:53:02.671Z,5.00
2023-02-27T18:55:29.544Z,5.00
2023-02-27T18:57:56.654Z,4.90
2023-02-27T19:00:24.521Z,4.90
2023-02-27T19:02:51.542Z,4.80
2023-02-27T19:05:18.753Z,4.80
2023-02-27T19:07:49.695Z,4.70
2023-02-27T19:10:16.759Z,4.70
2023-02-27T19:12:43.742Z,4.70
2023-02-27T19:15:11.202Z,4.60
2023-02-27T19:17:38.386Z,4.60
2023-02-27T19:20:07.093Z,4.60
2023-02-27T19:22:34.199Z,4.50
2023-02-27T19:25:01.315Z,4.50
2023-02-27T19:27:28.277Z,4.50
2023-02-27T19:29:55.203Z,4.40
2023-02-27T19:32:22.764Z,4.40
2023-02-27T19:34:49.733Z,4.40
2023-02-27T19:37:17.087Z,4.40
2023-02-27T19:39:44.465Z,4.40
2023-02-27T19:42:11.714Z,4.30
2023-02-27T19:44:39.970Z,4.30
2023-02-27T19:47:07.217Z,4.20
2023-02-27T19:49:34.285Z,4.30
2023-02-27T19:52:03.173Z,4.20
2023-02-27T19:54:30.531Z,4.20
2023-02-27T19:56:57.726Z,4.20
2023-02-27T19:59:25.289Z,4.10
2023-02-27T20:01:53.123Z,4.10
2023-02-27T20:04:20.241Z,4.20
2023-02-27T20:06:47.915Z,4.10
2023-02-27T20:09:16.815Z,4.10
2023-02-27T20:11:44.872Z,4.00
2023-02-27T20:14:12.655Z,4.00
2023-02-27T20:16:40.201Z,4.00
2023-02-27T20:19:10.310Z,4.00
2023-02-27T20:21:37.362Z,4.00
2023-02-27T20:24:04.500Z,4.00
2023-02-27T20:26:36.258Z,4.00
2023-02-27T20:29:08.630Z,4.00
2023-02-27T20:31:36.771Z,4.00
2023-02-27T20:34:06.247Z,4.00
2023-02-27T20:36:36.011Z,4.10
2023-02-27T20:39:03.100Z,4.00
2023-02-27T20:41:30.146Z,4.00
2023-02-27T20:43:57.842Z,4.00
2023-02-27T20:46:28.187Z,4.00
2023-02-27T20:49:00.494Z,4.00
2023-02-27T20:51:29.708Z,4.00
2023-02-27T20:53:58.688Z,4.00
2023-02-27T20:56:29.597Z,4.00
2023-02-27T20:58:56.743Z,4.00
2023-02-27T21:01:26.405Z,3.90
2023-02-27T21:03:55.900Z,4.00
2023-02-27T21:06:24.058Z,3.90
2023-02-27T21:08:53.080Z,3.90
2023-02-27T21:11:22.030Z,3.90
2023-02-27T21:13:50.288Z,3.90
2023-02-27T21:16:18.419Z,3.80
2023-02-27T21:18:59.448Z,3.80
2023-02-27T21:21:30.857Z,3.80
2023-02-27T21:23:58.347Z,3.80
2023-02-27T21:26:27.463Z,4.00
2023-02-27T21:28:55.824Z,4.20
2023-02-27T21:31:23.645Z,4.30
2023-02-27T21:33:51.573Z,4.40
2023-02-27T21:36:18.896Z,4.50
2023-02-27T21:38:46.154Z,4.60
2023-02-27T21:41:13.495Z,4.70
2023-02-27T21:43:40.946Z,4.70
2023-02-27T21:46:09.241Z,4.70
2023-02-27T21:48:36.129Z,4.70
2023-02-27T21:51:03.340Z,4.70
2023-02-27T21:53:31.057Z,4.80
2023-02-27T21:56:08.175Z,4.80
2023-02-27T21:58:35.426Z,4.80
2023-02-27T22:01:02.325Z,4.80
2023-02-27T22:03:35.071Z,4.90
2023-02-27T22:06:02.323Z,4.90
2023-02-27T22:08:29.228Z,5.00
2023-02-27T22:10:59.970Z,5.00
2023-02-27T22:13:27.319Z,5.00
2023-02-27T22:15:54.526Z,5.10
2023-02-27T22:18:22.183Z,5.10
2023-02-27T22:20:49.083Z,5.00
2023-02-27T22:23:16.068Z,5.00
2023-02-27T22:25:43.062Z,4.90
2023-02-27T22:28:11.133Z,4.90
2023-02-27T22:30:38.186Z,4.80
2023-02-27T22:33:05.238Z,4.90
2023-02-27T22:35:32.293Z,4.80
2023-02-27T22:37:59.389Z,4.70
2023-02-27T22:40:29.765Z,4.50
2023-02-27T22:42:56.813Z,4.50
2023-02-27T22:45:24.197Z,4.40
2023-02-27T22:47:51.157Z,4.40
2023-02-27T22:50:18.248Z,4.40
2023-02-27T22:52:45.114Z,4.40
2023-02-27T22:55:12.047Z,4.40
2023-02-27T22:57:38.974Z,4.30
2023-02-27T23:00:06.541Z,4.30
2023-02-27T23:02:33.600Z,4.30
2023-02-27T23:05:00.627Z,4.30
2023-02-27T23:07:27.793Z,4.20
2023-02-27T23:09:54.717Z,4.20
2023-02-27T23:12:21.880Z,4.20
2023-02-27T23:14:48.722Z,4.20
2023-02-27T23:17:15.698Z,4.20
2023-02-27T23:19:42.806Z,4.10
2023-02-27T23:22:10.205Z,4.10
2023-02-27T23:24:38.674Z,4.00
2023-02-27T23:27:19.597Z,3.90
2023-02-27T23:29:51.993Z,3.90
2023-02-27T23:32:19.547Z,3.80
2023-02-27T23:34:49.627Z,3.90
2023-02-27T23:37:16.834Z,3.80
2023-02-27T23:39:43.980Z,3.80
2023-02-27T23:42:11.112Z,3.80
2023-02-27T23:44:38.051Z,3.70
2023-02-27T23:47:05.041Z,3.60
2023-02-27T23:49:31.942Z,3.60
2023-02-27T23:51:58.882Z,3.50
2023-02-27T23:54:25.785Z,3.50
2023-02-27T23:56:55.628Z,3.50
2023-02-27T23:59:22.596Z,3.40
